Slotergracht — PDBP — position and weather

sailwx.info

Track history (hours):
 
Tides and Currents Weather Stations Pressure Air Temp Water Temp Dewpoint Dewpoint Depression Visibility Wind Speed Wind Dir Waves Ship Positions

Slotergracht

Last reported at 2017-Nov-19 21:45 UTC. Time now 2017-Nov-25 04:08 UTC.
Position N 30°21' W 081°37'.

Length 168 m; beam 25 m.

Type: Cargo ship. MMSI: 246456000.

Date/timePositionNaut miles runAvg speedWind from/ knotsBaromVisibWave heightAir tempDewpointWater temp
2017-Nov-19 21:45N 30°21' W 081°37'0 0.0
2017-Nov-19 21:27N 30°21' W 081°37'0 0.0
2017-Nov-19 21:00N 30°21' W 081°37'2 3.3
2017-Nov-19 20:30N 30°22' W 081°38'3 6.6
2017-Nov-19 20:00N 30°24' W 081°34'3 7.0
2017-Nov-19 19:31N 30°23' W 081°30'4 7.1
2017-Nov-19 19:00N 30°24' W 081°26'4 7.6
2017-Nov-19 18:31N 30°24' W 081°22'5 9.2
2017-Nov-19 18:01N 30°22' W 081°17'5 9.8
2017-Nov-19 17:30N 30°19' W 081°13'5 9.6
2017-Nov-19 17:00N 30°16' W 081°08'20413.7
2017-Nov-19 02:04N 27°03' W 079°50'116.0
2017-Nov-19 02:00N 27°02' W 079°50'816.1
2017-Nov-19 01:30N 26°54' W 079°52'816.2
2017-Nov-19 01:00N 26°47' W 079°55'612.0
2017-Nov-19 00:30N 26°46' W 080°02'1 2.0
2017-Nov-19 00:00N 26°46' W 080°03'0 0.0
2017-Nov-18 23:30N 26°46' W 080°03'0 0.0
2017-Nov-18 23:00N 26°46' W 080°03'0 0.0
2017-Nov-18 22:30N 26°46' W 080°03'0 0.0
2017-Nov-18 22:00N 26°46' W 080°03'0 0.0
2017-Nov-18 21:30N 26°46' W 080°03'0 0.0
2017-Nov-18 21:00N 26°46' W 080°03'0 0.0
2017-Nov-18 20:30N 26°46' W 080°03'0 0.0
2017-Nov-18 20:00N 26°46' W 080°03'0 0.0
2017-Nov-18 19:27N 26°46' W 080°03'0 0.0
2017-Nov-18 19:00N 26°46' W 080°03'0 0.0
2017-Nov-18 18:29N 26°46' W 080°03'0 0.0
2017-Nov-18 17:59N 26°46' W 080°03'0 0.0
2017-Nov-18 17:29N 26°46' W 080°03'0 0.0
2017-Nov-18 16:59N 26°46' W 080°03'0 0.0
2017-Nov-18 16:29N 26°46' W 080°03'0 0.0
2017-Nov-18 15:56N 26°46' W 080°03'0 0.0
2017-Nov-18 15:29N 26°46' W 080°03'0 0.0
2017-Nov-18 14:59N 26°46' W 080°03'0 0.0
2017-Nov-18 14:29N 26°46' W 080°03'0 0.0
2017-Nov-18 13:59N 26°46' W 080°03'0 0.9
2017-Nov-18 13:30N 26°46' W 080°03'4 7.3
2017-Nov-18 13:01N 26°47' W 079°59'611.0
2017-Nov-18 12:30N 26°50' W 079°54'612.0
2017-Nov-18 12:00N 26°55' W 079°49'611.6
2017-Nov-18 11:30N 26°59' W 079°46'62513.7
2017-Nov-16 13:47N 36°52' W 075°53'3 9.6
2017-Nov-16 13:30N 36°54' W 075°55'5 9.6
2017-Nov-16 13:00N 36°57' W 075°59'611.1
2017-Nov-16 12:29N 37°02' W 076°04'612.1
2017-Nov-16 12:00N 37°07' W 076°08'1812.4
2017-Nov-16 10:33N 37°25' W 076°05'113.2
2017-Nov-16 10:30N 37°25' W 076°05'8612.9
2017-Nov-16 03:50N 38°50' W 076°25'413.7
2017-Nov-16 03:30N 38°54' W 076°24'713.7
2017-Nov-16 03:00N 39°01' W 076°23'612.5
2017-Nov-16 02:30N 39°07' W 076°24'611.6
2017-Nov-16 02:00N 39°12' W 076°29'510.3
2017-Nov-16 01:30N 39°15' W 076°34'2 3.2
2017-Nov-16 00:59N 39°16' W 076°36'0 0.0
2017-Nov-16 00:29N 39°16' W 076°36'0 0.0
2017-Nov-15 23:59N 39°16' W 076°36'0 0.0
2017-Nov-15 23:29N 39°16' W 076°36'0 0.0
2017-Nov-15 22:59N 39°16' W 076°36'0 0.0
2017-Nov-15 22:29N 39°16' W 076°36'0 0.0
2017-Nov-15 21:58N 39°16' W 076°36'0 0.0
2017-Nov-15 21:28N 39°16' W 076°36'0 0.0
2017-Nov-15 20:58N 39°16' W 076°36'0 0.0
2017-Nov-15 20:28N 39°16' W 076°36'0 0.0
2017-Nov-15 19:58N 39°16' W 076°36'0 0.0
2017-Nov-15 19:28N 39°16' W 076°36'0 0.0
2017-Nov-15 18:58N 39°16' W 076°36'0 0.1
2017-Nov-15 18:28N 39°16' W 076°36'0 0.0
2017-Nov-15 17:58N 39°16' W 076°36'0 0.0
2017-Nov-15 17:28N 39°16' W 076°36'0 0.0
2017-Nov-15 16:55N 39°16' W 076°36'0 0.0
2017-Nov-15 16:28N 39°16' W 076°36'0 0.0
2017-Nov-15 15:58N 39°16' W 076°36'0 0.0
2017-Nov-15 15:28N 39°16' W 076°36'0 0.0
2017-Nov-15 14:58N 39°16' W 076°36'0 0.0
2017-Nov-15 14:28N 39°16' W 076°36'0 0.0
2017-Nov-15 13:58N 39°16' W 076°36'0 0.0
2017-Nov-15 13:28N 39°16' W 076°36'0 0.0
2017-Nov-15 12:58N 39°16' W 076°36'0 0.0
2017-Nov-15 12:28N 39°16' W 076°36'0 0.0
2017-Nov-15 11:58N 39°16' W 076°36'0 0.0
2017-Nov-15 11:28N 39°16' W 076°36'0 0.0
2017-Nov-15 10:58N 39°16' W 076°36'0 0.0
2017-Nov-15 10:28N 39°16' W 076°36'0 0.0
2017-Nov-15 09:58N 39°16' W 076°36'0 0.0
2017-Nov-15 09:28N 39°16' W 076°36'0 0.0
2017-Nov-15 08:58N 39°16' W 076°36'0 0.0
2017-Nov-15 08:28N 39°16' W 076°36'0 0.0
2017-Nov-15 07:58N 39°16' W 076°36'0 0.0
2017-Nov-15 07:28N 39°16' W 076°36'0 0.0
2017-Nov-15 06:58N 39°16' W 076°36'0 0.0
2017-Nov-15 06:28N 39°16' W 076°36'0 0.0
2017-Nov-15 05:58N 39°16' W 076°36'0 0.0
2017-Nov-15 05:28N 39°16' W 076°36'0 0.0
2017-Nov-15 04:58N 39°16' W 076°36'0 0.1
2017-Nov-15 04:28N 39°16' W 076°36'0 0.1
2017-Nov-15 03:58N 39°16' W 076°36'0 0.0
2017-Nov-15 03:28N 39°16' W 076°36'0 0.0
2017-Nov-15 02:58N 39°16' W 076°36'0 0.0
2017-Nov-15 02:28N 39°16' W 076°36'0 0.0
2017-Nov-15 01:58N 39°16' W 076°36'0 0.0
2017-Nov-15 01:28N 39°16' W 076°36'0 0.0
2017-Nov-15 00:58N 39°16' W 076°36'0 0.0
2017-Nov-15 00:28N 39°16' W 076°36'0 0.0
2017-Nov-14 23:58N 39°16' W 076°36'0 0.0
2017-Nov-14 23:28N 39°16' W 076°36'0 0.0
2017-Nov-14 22:58N 39°16' W 076°36'0 0.0
2017-Nov-14 22:28N 39°16' W 076°36'0 0.0
2017-Nov-14 21:58N 39°16' W 076°36'0 0.0
2017-Nov-14 21:28N 39°16' W 076°36'0 0.0
2017-Nov-14 20:58N 39°16' W 076°36'0 0.0
2017-Nov-14 20:28N 39°16' W 076°36'0 0.0
2017-Nov-14 19:58N 39°16' W 076°36'0 0.0
2017-Nov-14 19:28N 39°16' W 076°36'0 0.0
2017-Nov-14 18:58N 39°16' W 076°36'0 0.0
2017-Nov-14 18:25N 39°16' W 076°36'0 0.0
2017-Nov-14 17:58N 39°16' W 076°36'0 0.0
2017-Nov-14 17:28N 39°16' W 076°36'0 1.0
2017-Nov-14 17:00N 39°15' W 076°35'3 5.5
2017-Nov-14 16:30N 39°14' W 076°32'3 6.5
2017-Nov-14 16:00N 39°12' W 076°29'510.9
2017-Nov-14 15:30N 39°08' W 076°24'612.7
2017-Nov-14 15:00N 39°02' W 076°22'612.5
2017-Nov-14 14:30N 38°55' W 076°23'612.7
2017-Nov-14 14:00N 38°49' W 076°25'1412.6
2017-Nov-14 12:55N 38°36' W 076°26'3611.9
2017-Nov-14 09:54N 38°01' W 076°12'612.7
2017-Nov-14 09:25N 37°55' W 076°10'511.7
2017-Nov-14 09:00N 37°51' W 076°09'712.1
2017-Nov-14 08:27N 37°44' W 076°11'712.4
2017-Nov-14 07:53N 37°38' W 076°06'512.2
2017-Nov-14 07:27N 37°33' W 076°02'512.1
2017-Nov-14 07:00N 37°28' W 076°04'2211.5
2017-Nov-14 05:07N 37°07' W 076°07'212.5
2017-Nov-14 04:58N 37°05' W 076°06'612.5
2017-Nov-14 04:28N 37°00' W 076°01'510.6
2017-Nov-14 04:00N 36°56' W 075°57'5 9.1
2017-Nov-14 03:30N 36°53' W 075°53'  
Track history (hours):
 
Tides and Currents Weather Stations Pressure Air Temp Water Temp Dewpoint Dewpoint Depression Visibility Wind Speed Wind Dir Waves Ship Positions

Slotergracht

Last reported at 2017-Nov-19 21:45 UTC. Time now 2017-Nov-25 04:08 UTC.
Position N 30°21' W 081°37'.

Length 168 m; beam 25 m.

Type: Cargo ship. MMSI: 246456000.

Date/timePositionNaut miles runAvg speedWind from/ knotsBaromVisibWave heightAir tempDewpointWater temp
2017-Nov-19 21:45N 30°21' W 081°37'0 0.0
2017-Nov-19 21:27N 30°21' W 081°37'0 0.0
2017-Nov-19 21:00N 30°21' W 081°37'2 3.3
2017-Nov-19 20:30N 30°22' W 081°38'3 6.6
2017-Nov-19 20:00N 30°24' W 081°34'3 7.0
2017-Nov-19 19:31N 30°23' W 081°30'4 7.1
2017-Nov-19 19:00N 30°24' W 081°26'4 7.6
2017-Nov-19 18:31N 30°24' W 081°22'5 9.2
2017-Nov-19 18:01N 30°22' W 081°17'5 9.8
2017-Nov-19 17:30N 30°19' W 081°13'5 9.6
2017-Nov-19 17:00N 30°16' W 081°08'20413.7
2017-Nov-19 02:04N 27°03' W 079°50'116.0
2017-Nov-19 02:00N 27°02' W 079°50'816.1
2017-Nov-19 01:30N 26°54' W 079°52'816.2
2017-Nov-19 01:00N 26°47' W 079°55'612.0
2017-Nov-19 00:30N 26°46' W 080°02'1 2.0
2017-Nov-19 00:00N 26°46' W 080°03'0 0.0
2017-Nov-18 23:30N 26°46' W 080°03'0 0.0
2017-Nov-18 23:00N 26°46' W 080°03'0 0.0
2017-Nov-18 22:30N 26°46' W 080°03'0 0.0
2017-Nov-18 22:00N 26°46' W 080°03'0 0.0
2017-Nov-18 21:30N 26°46' W 080°03'0 0.0
2017-Nov-18 21:00N 26°46' W 080°03'0 0.0
2017-Nov-18 20:30N 26°46' W 080°03'0 0.0
2017-Nov-18 20:00N 26°46' W 080°03'0 0.0
2017-Nov-18 19:27N 26°46' W 080°03'0 0.0
2017-Nov-18 19:00N 26°46' W 080°03'0 0.0
2017-Nov-18 18:29N 26°46' W 080°03'0 0.0
2017-Nov-18 17:59N 26°46' W 080°03'0 0.0
2017-Nov-18 17:29N 26°46' W 080°03'0 0.0
2017-Nov-18 16:59N 26°46' W 080°03'0 0.0
2017-Nov-18 16:29N 26°46' W 080°03'0 0.0
2017-Nov-18 15:56N 26°46' W 080°03'0 0.0
2017-Nov-18 15:29N 26°46' W 080°03'0 0.0
2017-Nov-18 14:59N 26°46' W 080°03'0 0.0
2017-Nov-18 14:29N 26°46' W 080°03'0 0.0
2017-Nov-18 13:59N 26°46' W 080°03'0 0.9
2017-Nov-18 13:30N 26°46' W 080°03'4 7.3
2017-Nov-18 13:01N 26°47' W 079°59'611.0
2017-Nov-18 12:30N 26°50' W 079°54'612.0
2017-Nov-18 12:00N 26°55' W 079°49'611.6
2017-Nov-18 11:30N 26°59' W 079°46'62513.7
2017-Nov-16 13:47N 36°52' W 075°53'3 9.6
2017-Nov-16 13:30N 36°54' W 075°55'5 9.6
2017-Nov-16 13:00N 36°57' W 075°59'611.1
2017-Nov-16 12:29N 37°02' W 076°04'612.1
2017-Nov-16 12:00N 37°07' W 076°08'1812.4
2017-Nov-16 10:33N 37°25' W 076°05'113.2
2017-Nov-16 10:30N 37°25' W 076°05'8612.9
2017-Nov-16 03:50N 38°50' W 076°25'413.7
2017-Nov-16 03:30N 38°54' W 076°24'713.7
2017-Nov-16 03:00N 39°01' W 076°23'612.5
2017-Nov-16 02:30N 39°07' W 076°24'611.6
2017-Nov-16 02:00N 39°12' W 076°29'510.3
2017-Nov-16 01:30N 39°15' W 076°34'2 3.2
2017-Nov-16 00:59N 39°16' W 076°36'0 0.0
2017-Nov-16 00:29N 39°16' W 076°36'0 0.0
2017-Nov-15 23:59N 39°16' W 076°36'0 0.0
2017-Nov-15 23:29N 39°16' W 076°36'0 0.0
2017-Nov-15 22:59N 39°16' W 076°36'0 0.0
2017-Nov-15 22:29N 39°16' W 076°36'0 0.0
2017-Nov-15 21:58N 39°16' W 076°36'0 0.0
2017-Nov-15 21:28N 39°16' W 076°36'0 0.0
2017-Nov-15 20:58N 39°16' W 076°36'0 0.0
2017-Nov-15 20:28N 39°16' W 076°36'0 0.0
2017-Nov-15 19:58N 39°16' W 076°36'0 0.0
2017-Nov-15 19:28N 39°16' W 076°36'0 0.0
2017-Nov-15 18:58N 39°16' W 076°36'0 0.1
2017-Nov-15 18:28N 39°16' W 076°36'0 0.0
2017-Nov-15 17:58N 39°16' W 076°36'0 0.0
2017-Nov-15 17:28N 39°16' W 076°36'0 0.0
2017-Nov-15 16:55N 39°16' W 076°36'0 0.0
2017-Nov-15 16:28N 39°16' W 076°36'0 0.0
2017-Nov-15 15:58N 39°16' W 076°36'0 0.0
2017-Nov-15 15:28N 39°16' W 076°36'0 0.0
2017-Nov-15 14:58N 39°16' W 076°36'0 0.0
2017-Nov-15 14:28N 39°16' W 076°36'0 0.0
2017-Nov-15 13:58N 39°16' W 076°36'0 0.0
2017-Nov-15 13:28N 39°16' W 076°36'0 0.0
2017-Nov-15 12:58N 39°16' W 076°36'0 0.0
2017-Nov-15 12:28N 39°16' W 076°36'0 0.0
2017-Nov-15 11:58N 39°16' W 076°36'0 0.0
2017-Nov-15 11:28N 39°16' W 076°36'0 0.0
2017-Nov-15 10:58N 39°16' W 076°36'0 0.0
2017-Nov-15 10:28N 39°16' W 076°36'0 0.0
2017-Nov-15 09:58N 39°16' W 076°36'0 0.0
2017-Nov-15 09:28N 39°16' W 076°36'0 0.0
2017-Nov-15 08:58N 39°16' W 076°36'0 0.0
2017-Nov-15 08:28N 39°16' W 076°36'0 0.0
2017-Nov-15 07:58N 39°16' W 076°36'0 0.0
2017-Nov-15 07:28N 39°16' W 076°36'0 0.0
2017-Nov-15 06:58N 39°16' W 076°36'0 0.0
2017-Nov-15 06:28N 39°16' W 076°36'0 0.0
2017-Nov-15 05:58N 39°16' W 076°36'0 0.0
2017-Nov-15 05:28N 39°16' W 076°36'0 0.0
2017-Nov-15 04:58N 39°16' W 076°36'0 0.1
2017-Nov-15 04:28N 39°16' W 076°36'0 0.1
2017-Nov-15 03:58N 39°16' W 076°36'0 0.0
2017-Nov-15 03:28N 39°16' W 076°36'0 0.0
2017-Nov-15 02:58N 39°16' W 076°36'0 0.0
2017-Nov-15 02:28N 39°16' W 076°36'0 0.0
2017-Nov-15 01:58N 39°16' W 076°36'0 0.0
2017-Nov-15 01:28N 39°16' W 076°36'0 0.0
2017-Nov-15 00:58N 39°16' W 076°36'0 0.0
2017-Nov-15 00:28N 39°16' W 076°36'0 0.0
2017-Nov-14 23:58N 39°16' W 076°36'0 0.0
2017-Nov-14 23:28N 39°16' W 076°36'0 0.0
2017-Nov-14 22:58N 39°16' W 076°36'0 0.0
2017-Nov-14 22:28N 39°16' W 076°36'0 0.0
2017-Nov-14 21:58N 39°16' W 076°36'0 0.0
2017-Nov-14 21:28N 39°16' W 076°36'0 0.0
2017-Nov-14 20:58N 39°16' W 076°36'0 0.0
2017-Nov-14 20:28N 39°16' W 076°36'0 0.0
2017-Nov-14 19:58N 39°16' W 076°36'0 0.0
2017-Nov-14 19:28N 39°16' W 076°36'0 0.0
2017-Nov-14 18:58N 39°16' W 076°36'0 0.0
2017-Nov-14 18:25N 39°16' W 076°36'0 0.0
2017-Nov-14 17:58N 39°16' W 076°36'0 0.0
2017-Nov-14 17:28N 39°16' W 076°36'0 1.0
2017-Nov-14 17:00N 39°15' W 076°35'3 5.5
2017-Nov-14 16:30N 39°14' W 076°32'3 6.5
2017-Nov-14 16:00N 39°12' W 076°29'510.9
2017-Nov-14 15:30N 39°08' W 076°24'612.7
2017-Nov-14 15:00N 39°02' W 076°22'612.5
2017-Nov-14 14:30N 38°55' W 076°23'612.7
2017-Nov-14 14:00N 38°49' W 076°25'1412.6
2017-Nov-14 12:55N 38°36' W 076°26'3611.9
2017-Nov-14 09:54N 38°01' W 076°12'612.7
2017-Nov-14 09:25N 37°55' W 076°10'511.7
2017-Nov-14 09:00N 37°51' W 076°09'712.1
2017-Nov-14 08:27N 37°44' W 076°11'712.4
2017-Nov-14 07:53N 37°38' W 076°06'512.2
2017-Nov-14 07:27N 37°33' W 076°02'512.1
2017-Nov-14 07:00N 37°28' W 076°04'2211.5
2017-Nov-14 05:07N 37°07' W 076°07'212.5
2017-Nov-14 04:58N 37°05' W 076°06'612.5
2017-Nov-14 04:28N 37°00' W 076°01'510.6
2017-Nov-14 04:00N 36°56' W 075°57'5 9.1
2017-Nov-14 03:30N 36°53' W 075°53'  

Dump ship's entire track history